Time;durP1;ratioP1;P1;durP2;ratioP2;P2;SDS_P1;SDS_P2;PMS_P1;PMS_P2;Temp;Humidity;BMP_temperature;BMP_pressure;BME280_temperature;BME280_humidity;BME280_pressure;Samples;Min_cycle;Max_cycle;Signal;HPM_P1;HPM_P2
2023/01/08 00:01:10;;;;;;;6.85;1.70;;;8.70;99.90;;;8.60;100.00;99502.31;4969099;28;20240;-76
2023/01/08 00:03:39;;;;;;;13.15;2.97;;;8.60;99.90;;;8.58;100.00;99501.41;4972899;28;20297;-76
2023/01/08 00:06:12;;;;;;;7.90;1.85;;;8.60;99.90;;;8.55;100.00;99485.59;4977013;28;20288;-76
2023/01/08 00:08:39;;;;;;;11.48;2.63;;;8.60;99.90;;;8.56;100.00;99479.47;4968602;28;20214;-76
2023/01/08 00:11:06;;;;;;;9.57;2.30;;;8.60;99.90;;;8.54;100.00;99475.94;4969363;28;20284;-76
2023/01/08 00:13:34;;;;;;;8.32;1.95;;;8.60;99.90;;;8.55;100.00;99479.47;4969322;28;20229;-75
2023/01/08 00:16:08;;;;;;;9.43;2.22;;;8.60;99.90;;;8.56;100.00;99481.22;4971206;28;20210;-76
2023/01/08 00:18:36;;;;;;;14.57;3.28;;;8.60;99.90;;;8.56;100.00;99482.09;4969190;28;20209;-76
2023/01/08 00:21:04;;;;;;;11.50;2.65;;;8.60;99.90;;;8.57;100.00;99468.03;4976516;28;20301;-76
2023/01/08 00:23:31;;;;;;;7.00;1.70;;;8.60;99.90;;;8.53;100.00;99446.94;4977460;28;20232;-76
2023/01/08 00:26:09;;;;;;;10.05;2.38;;;8.50;99.90;;;8.55;100.00;99442.56;4977735;28;20238;-75
2023/01/08 00:28:37;;;;;;;7.63;1.83;;;8.50;99.90;;;8.54;100.00;99449.59;4972534;28;20205;-76
2023/01/08 00:31:11;;;;;;;11.75;2.65;;;8.60;99.90;;;8.45;100.00;99443.44;4970169;28;20268;-76
2023/01/08 00:33:39;;;;;;;11.98;2.75;;;8.50;99.90;;;8.47;100.00;99441.69;4967443;28;20237;-76
2023/01/08 00:36:10;;;;;;;7.30;1.75;;;8.50;99.90;;;8.48;100.00;99441.69;4975322;28;20205;-76
2023/01/08 00:38:38;;;;;;;7.03;1.70;;;8.50;99.90;;;8.46;100.00;99445.19;4978764;28;20197;-76
2023/01/08 00:41:05;;;;;;;11.73;2.75;;;8.50;99.90;;;8.47;100.00;99455.72;4980235;28;20209;-77
2023/01/08 00:43:32;;;;;;;12.13;2.80;;;8.50;99.90;;;8.45;100.00;99456.59;4972026;28;20659;-77
2023/01/08 00:46:00;;;;;;;8.15;1.92;;;8.50;99.90;;;8.39;100.00;99453.97;4971647;28;20233;-76
2023/01/08 00:48:27;;;;;;;13.27;3.03;;;8.40;99.90;;;8.39;100.00;99448.69;4963860;28;20209;-76
2023/01/08 00:50:54;;;;;;;7.68;1.83;;;8.40;99.90;;;8.33;100.00;99445.16;4975124;28;20240;-76
2023/01/08 00:53:22;;;;;;;7.63;1.83;;;8.40;99.90;;;8.33;100.00;99439.91;4972707;28;20458;-77
2023/01/08 00:55:49;;;;;;;8.10;1.95;;;8.40;99.90;;;8.39;100.00;99432.88;4976431;28;20276;-77
2023/01/08 00:58:17;;;;;;;7.68;1.90;;;8.40;99.90;;;8.38;100.00;99426.72;4972095;28;20201;-77
2023/01/08 01:00:44;;;;;;;13.05;3.25;;;8.40;99.90;;;8.36;100.00;99428.47;4979030;28;20278;-76
2023/01/08 01:03:11;;;;;;;13.05;2.95;;;8.40;99.90;;;8.33;100.00;99423.22;4971599;28;20232;-76
2023/01/08 01:05:37;;;;;;;7.50;1.73;;;8.40;99.90;;;8.31;100.00;99420.53;4969612;28;20206;-77
2023/01/08 01:08:04;;;;;;;16.67;3.75;;;8.30;99.90;;;8.28;100.00;99419.66;4980447;28;20286;-77
2023/01/08 01:10:32;;;;;;;10.88;2.70;;;8.30;99.90;;;8.30;100.00;99437.22;4969335;28;20233;-76
2023/01/08 01:12:59;;;;;;;9.15;2.20;;;8.30;99.90;;;8.29;100.00;99435.47;4968688;28;20241;-76
2023/01/08 01:15:26;;;;;;;14.23;3.40;;;8.30;99.90;;;8.28;100.00;99428.44;4967159;28;20213;-77
2023/01/08 01:17:53;;;;;;;12.07;2.85;;;8.30;99.90;;;8.26;100.00;99430.19;4967697;28;20209;-76
2023/01/08 01:20:20;;;;;;;8.10;2.08;;;8.30;99.90;;;8.19;100.00;99432.81;4969805;28;20212;-76
2023/01/08 01:22:47;;;;;;;9.38;2.30;;;8.20;99.90;;;8.19;100.00;99435.44;4970852;28;20272;-75
2023/01/08 01:25:14;;;;;;;12.75;2.95;;;8.20;99.90;;;8.18;100.00;99439.81;4970527;28;20216;-75
2023/01/08 01:27:41;;;;;;;15.93;3.58;;;8.20;99.90;;;8.17;100.00;99438.06;4970668;28;20209;-75
2023/01/08 01:30:09;;;;;;;10.05;2.40;;;8.20;99.90;;;8.10;100.00;99444.19;4971463;28;20240;-76
2023/01/08 01:32:36;;;;;;;9.48;2.15;;;8.20;99.90;;;8.12;100.00;99438.94;4970575;28;20214;-76
2023/01/08 01:35:04;;;;;;;15.57;3.47;;;8.10;99.90;;;8.10;100.00;99456.47;4976248;28;20292;-77
2023/01/08 01:37:32;;;;;;;14.52;3.45;;;8.10;99.90;;;8.09;100.00;99462.63;4970801;28;20228;-77
2023/01/08 01:39:59;;;;;;;8.57;2.38;;;8.10;99.90;;;8.06;100.00;99458.22;4971984;28;20264;-77
2023/01/08 01:42:42;;;;;;;12.20;2.78;;;8.10;99.90;;;8.02;100.00;99456.44;4976651;28;20288;-77
2023/01/08 01:45:16;;;;;;;9.07;2.13;;;8.10;99.90;;;8.06;100.00;99468.75;4972153;28;20209;-77
2023/01/08 01:47:54;;;;;;;17.65;3.92;;;8.10;99.90;;;8.04;100.00;99462.59;4965779;28;20263;-77
2023/01/08 01:50:40;;;;;;;9.13;2.17;;;8.10;99.90;;;8.08;100.00;99461.75;4974755;28;20244;-77
2023/01/08 01:53:20;;;;;;;10.40;2.38;;;8.10;99.90;;;8.17;100.00;99463.53;4973769;28;20293;-77
2023/01/08 01:55:47;;;;;;;8.73;2.05;;;8.20;99.90;;;8.19;100.00;99451.25;4968621;28;20291;-77
2023/01/08 01:58:27;;;;;;;8.27;2.08;;;8.20;99.90;;;8.18;100.00;99455.63;4967144;28;20252;-78
2023/01/08 02:00:58;;;;;;;9.40;2.13;;;8.20;99.90;;;8.21;100.00;99455.63;4968410;28;20201;-77
2023/01/08 02:03:29;;;;;;;8.77;2.28;;;8.20;99.90;;;8.16;100.00;99448.59;4974469;28;20229;-77
2023/01/08 02:06:09;;;;;;;7.75;1.80;;;8.20;99.90;;;8.14;100.00;99460.88;4971603;28;20264;-78
2023/01/08 02:09:09;;;;;;;7.40;1.80;;;8.20;99.90;;;8.17;100.00;99461.78;4972439;28;20228;-78
2023/01/08 02:11:45;;;;;;;7.63;1.80;;;8.20;99.90;;;8.13;100.00;99459.13;4973954;28;20209;-77
2023/01/08 02:14:18;;;;;;;9.18;2.10;;;8.20;99.90;;;8.08;100.00;99464.38;4977011;28;20233;-77
2023/01/08 02:16:57;;;;;;;22.35;5.07;;;8.10;99.90;;;8.01;100.00;99458.22;4953714;28;20275;-77
2023/01/08 02:19:52;;;;;;;25.42;5.38;;;8.10;99.90;;;7.99;100.00;99469.59;4966407;28;20233;-78
2023/01/08 02:22:31;;;;;;;18.00;4.15;;;8.00;99.90;;;8.00;100.00;99469.59;4970598;28;20251;-78
2023/01/08 02:25:08;;;;;;;7.47;1.92;;;8.00;99.90;;;7.99;100.00;99472.25;4968839;28;20213;-78
2023/01/08 02:27:39;;;;;;;16.42;3.92;;;8.00;99.90;;;7.99;100.00;99464.34;4970137;28;20196;-78
2023/01/08 02:33:01;;;;;;;12.90;3.13;;;8.00;99.90;;;8.00;100.00;99461.72;4931438;29;20234;-79
2023/01/08 02:35:40;;;;;;;11.70;2.85;;;8.00;99.90;;;7.99;100.00;99456.44;4936634;29;20825;-78
2023/01/08 02:38:13;;;;;;;14.93;3.55;;;8.00;99.90;;;7.97;100.00;99459.06;4963938;28;20293;-78
2023/01/08 02:41:08;;;;;;;9.63;2.30;;;8.00;99.90;;;7.94;100.00;99455.53;4932526;29;20210;-79
2023/01/08 02:43:51;;;;;;;12.80;3.17;;;8.00;99.90;;;7.92;100.00;99452.03;4948222;28;20222;-78
2023/01/08 02:46:25;;;;;;;11.40;3.05;;;8.00;99.90;;;7.87;100.00;99446.75;4934835;29;20304;-77
2023/01/08 02:49:05;;;;;;;12.73;3.00;;;7.90;99.90;;;7.87;100.00;99454.63;4929663;29;20233;-77
2023/01/08 02:51:42;;;;;;;13.75;3.38;;;7.90;99.90;;;7.84;100.00;99453.75;4928167;29;20234;-77
2023/01/08 02:54:17;;;;;;;10.32;2.53;;;7.90;99.90;;;7.83;100.00;99444.97;4947638;29;20226;-77
2023/01/08 02:56:57;;;;;;;8.93;2.22;;;7.80;99.90;;;7.80;100.00;99434.44;4934952;29;20242;-77
2023/01/08 02:59:27;;;;;;;9.90;2.55;;;7.80;99.90;;;7.79;100.00;99431.75;4935624;29;20266;-77
2023/01/08 03:01:55;;;;;;;7.50;1.92;;;7.80;99.90;;;7.79;100.00;99410.72;4930470;29;20328;-77
2023/01/08 03:04:25;;;;;;;13.30;3.40;;;7.80;99.90;;;7.74;100.00;99400.16;4929043;29;20274;-77
2023/01/08 03:06:52;;;;;;;10.35;2.45;;;7.80;99.90;;;7.78;100.00;99393.16;4964588;28;20207;-79
2023/01/08 03:09:19;;;;;;;13.43;3.20;;;7.80;99.90;;;7.75;100.00;99390.50;4936156;29;20237;-79
2023/01/08 03:11:59;;;;;;;8.95;2.22;;;7.80;99.90;;;7.73;100.00;99395.78;4933136;29;20210;-79
2023/01/08 03:14:36;;;;;;;8.85;2.17;;;7.80;99.90;;;7.69;100.00;99401.91;4948404;29;20234;-78
2023/01/08 03:17:17;;;;;;;18.90;4.47;;;7.70;99.90;;;7.69;100.00;99396.63;4962055;28;20203;-78
2023/01/08 03:20:07;;;;;;;12.70;3.30;;;7.70;99.90;;;7.69;100.00;99405.41;4928167;29;20211;-78
2023/01/08 03:22:40;;;;;;;14.25;3.40;;;7.70;99.90;;;7.69;100.00;99391.38;4934402;29;20207;-79
2023/01/08 03:25:08;;;;;;;11.95;2.85;;;7.70;99.90;;;7.69;100.00;99388.75;4948500;28;20242;-79
2023/01/08 03:27:42;;;;;;;15.32;3.63;;;7.70;99.90;;;7.69;100.00;99386.09;4930898;29;20238;-77
2023/01/08 03:30:11;;;;;;;10.90;2.65;;;7.70;99.90;;;7.72;100.00;99392.25;4930979;29;20758;-78
2023/01/08 03:32:40;;;;;;;12.90;3.08;;;7.80;99.90;;;7.75;100.00;99399.28;4961947;28;20218;-78
2023/01/08 03:35:11;;;;;;;13.48;3.28;;;7.80;99.90;;;7.76;100.00;99393.16;4945287;28;20310;-77
2023/01/08 03:37:44;;;;;;;15.80;3.70;;;7.80;99.90;;;7.75;100.00;99391.41;4934743;29;20245;-78
2023/01/08 03:40:20;;;;;;;6.97;1.70;;;7.80;99.90;;;7.77;100.00;99387.03;4936691;29;20714;-78
2023/01/08 03:42:48;;;;;;;16.20;3.95;;;7.80;99.90;;;7.77;100.00;99375.63;4937250;29;20234;-78
2023/01/08 03:45:15;;;;;;;10.35;2.58;;;7.80;99.90;;;7.79;100.00;99379.13;4936553;29;20230;-78
2023/01/08 03:47:44;;;;;;;13.98;3.38;;;7.80;99.90;;;7.79;100.00;99380.00;4934993;29;20210;-77
2023/01/08 03:50:20;;;;;;;13.00;3.10;;;7.80;99.90;;;7.79;100.00;99374.75;4941359;29;20320;-78
2023/01/08 03:52:47;;;;;;;9.40;2.40;;;7.80;99.90;;;7.81;100.00;99377.41;4951200;28;20230;-77
2023/01/08 03:55:14;;;;;;;13.95;3.30;;;7.80;99.90;;;7.83;100.00;99378.28;4937152;29;20283;-77
2023/01/08 03:57:41;;;;;;;18.95;4.40;;;7.80;99.90;;;7.86;100.00;99376.56;4938263;29;20210;-78
2023/01/08 04:00:09;;;;;;;11.00;3.17;;;7.90;99.90;;;7.85;100.00;99372.16;4935471;29;20238;-77
2023/01/08 04:02:37;;;;;;;10.75;2.58;;;7.90;99.90;;;7.89;100.00;99371.28;4931829;29;20672;-77
2023/01/08 04:05:04;;;;;;;10.55;2.85;;;7.90;99.90;;;7.88;100.00;99364.28;4937291;29;20219;-76
2023/01/08 04:07:31;;;;;;;13.35;3.20;;;7.90;99.90;;;7.87;100.00;99367.78;4938148;29;20242;-77
2023/01/08 04:09:58;;;;;;;11.32;2.85;;;7.90;99.90;;;7.88;100.00;99373.91;4936864;29;20289;-78
2023/01/08 04:12:25;;;;;;;11.10;2.65;;;7.90;99.90;;;7.89;100.00;99367.78;4930200;29;20311;-77
2023/01/08 04:14:52;;;;;;;19.08;4.50;;;7.90;99.90;;;7.84;100.00;99365.13;4933907;29;20234;-77
2023/01/08 04:17:19;;;;;;;16.20;3.88;;;7.90;99.90;;;7.78;100.00;99364.22;4932616;29;20214;-77
2023/01/08 04:19:46;;;;;;;12.00;2.90;;;7.80;99.90;;;7.77;100.00;99368.59;4934878;29;20270;-77
2023/01/08 04:22:13;;;;;;;13.00;3.17;;;7.80;99.90;;;7.79;100.00;99365.97;4933419;29;20285;-77
2023/01/08 04:24:40;;;;;;;11.82;2.88;;;7.80;99.90;;;7.78;100.00;99364.22;4935141;29;20283;-77
2023/01/08 04:27:07;;;;;;;13.63;3.22;;;7.80;99.90;;;7.77;100.00;99365.97;4937668;29;20231;-77
2023/01/08 04:29:34;;;;;;;10.82;2.92;;;7.80;99.90;;;7.75;100.00;99364.19;4934525;29;20262;-77
2023/01/08 04:32:01;;;;;;;8.68;2.35;;;7.80;99.90;;;7.78;100.00;99370.34;4934204;29;20258;-77
2023/01/08 04:34:28;;;;;;;9.95;2.45;;;7.80;99.90;;;7.78;100.00;99361.56;4937152;29;20268;-78
2023/01/08 04:36:55;;;;;;;13.13;3.47;;;7.80;99.90;;;7.74;100.00;99365.94;4941215;29;20294;-77
2023/01/08 04:39:22;;;;;;;8.20;2.08;;;7.80;99.90;;;7.71;100.00;99368.56;4934779;29;20211;-77
2023/01/08 04:41:49;;;;;;;8.45;2.05;;;7.80;99.90;;;7.68;100.00;99363.31;4935554;29;20243;-77
2023/01/08 04:44:16;;;;;;;14.70;3.63;;;7.70;99.90;;;7.64;100.00;99356.28;4936043;29;20261;-77
2023/01/08 04:46:43;;;;;;;12.48;2.97;;;7.70;99.90;;;7.63;100.00;99368.56;4935175;29;20675;-77
2023/01/08 04:49:12;;;;;;;4.80;1.33;;;7.70;99.90;;;7.62;100.00;99363.28;4930889;29;20659;-77
2023/01/08 04:51:39;;;;;;;14.10;3.30;;;7.70;99.90;;;7.64;100.00;99364.16;4930320;29;20258;-77
2023/01/08 04:54:07;;;;;;;8.43;2.35;;;7.70;99.90;;;7.68;100.00;99361.56;4933568;29;20222;-77
2023/01/08 04:56:34;;;;;;;12.27;2.78;;;7.70;99.90;;;7.74;100.00;99367.72;4937481;29;20331;-76
2023/01/08 04:59:01;;;;;;;9.77;2.35;;;7.70;99.90;;;7.75;100.00;99370.34;4934717;29;20210;-76
2023/01/08 05:01:28;;;;;;;11.88;2.80;;;7.80;99.90;;;7.82;100.00;99366.00;4940479;29;20308;-76
2023/01/08 05:04:05;;;;;;;13.55;3.20;;;7.80;99.90;;;7.89;100.00;99370.41;4934219;29;20274;-76
2023/01/08 05:06:32;;;;;;;10.85;2.60;;;7.90;99.90;;;7.87;100.00;99383.56;4933697;29;20211;-76
2023/01/08 05:08:59;;;;;;;11.63;2.80;;;7.90;99.90;;;7.84;100.00;99383.56;4932777;29;20633;-76
2023/01/08 05:11:27;;;;;;;12.48;3.10;;;7.90;99.90;;;7.86;100.00;99376.56;4933332;29;20292;-78
2023/01/08 05:13:55;;;;;;;11.77;2.92;;;7.90;99.90;;;7.89;100.00;99381.81;4932563;29;20277;-76
2023/01/08 05:16:22;;;;;;;11.45;2.78;;;7.90;99.90;;;7.94;100.00;99380.09;4934050;29;20297;-77
2023/01/08 05:18:50;;;;;;;16.10;3.72;;;8.00;99.90;;;8.04;100.00;99386.25;4933454;28;20246;-77
2023/01/08 05:21:17;;;;;;;10.07;2.50;;;8.10;99.90;;;8.12;100.00;99387.16;4934009;29;20206;-77
2023/01/08 05:23:46;;;;;;;11.68;2.80;;;8.10;99.90;;;8.15;100.00;99381.00;4938081;29;20221;-77
2023/01/08 05:26:15;;;;;;;13.98;3.30;;;8.10;99.90;;;8.21;100.00;99391.56;4934576;29;20241;-77
2023/01/08 05:28:42;;;;;;;12.48;2.92;;;8.20;99.90;;;8.25;100.00;99383.66;4935575;29;20268;-77
2023/01/08 05:31:10;;;;;;;13.73;3.38;;;8.20;99.90;;;8.22;100.00;99382.78;4929214;29;20262;-77
2023/01/08 05:33:38;;;;;;;9.40;2.38;;;8.30;99.90;;;8.20;100.00;99379.25;4929415;29;20227;-77
2023/01/08 05:36:11;;;;;;;14.05;3.35;;;8.20;99.90;;;8.20;100.00;99382.78;4932307;29;20230;-78
2023/01/08 05:38:39;;;;;;;12.15;2.95;;;8.20;99.90;;;8.17;100.00;99382.78;4929467;29;20234;-79
2023/01/08 05:41:07;;;;;;;18.45;4.22;;;8.20;99.90;;;8.13;100.00;99385.41;4931685;29;20614;-79
2023/01/08 05:43:35;;;;;;;13.23;3.17;;;8.20;99.90;;;8.02;100.00;99378.34;4929623;29;20242;-77
2023/01/08 05:46:03;;;;;;;8.20;2.00;;;8.10;99.90;;;7.89;100.00;99368.66;4929624;29;20246;-78
2023/01/08 05:48:34;;;;;;;14.95;3.53;;;7.90;99.90;;;7.82;100.00;99368.63;4930727;29;20205;-77
2023/01/08 05:51:02;;;;;;;13.98;3.30;;;7.80;99.90;;;7.78;100.00;99353.69;4929539;29;20226;-78
2023/01/08 05:53:33;;;;;;;9.73;2.42;;;7.80;99.90;;;7.71;100.00;99343.13;4934789;29;20314;-77
2023/01/08 05:56:06;;;;;;;10.00;2.45;;;7.80;99.90;;;7.67;100.00;99341.38;4935403;29;20222;-79
2023/01/08 05:58:35;;;;;;;12.80;3.05;;;7.70;99.90;;;7.67;100.00;99330.84;4936863;29;20302;-77
2023/01/08 06:01:14;;;;;;;14.32;3.45;;;7.70;99.90;;;7.68;100.00;99331.72;4931084;29;20210;-77
2023/01/08 06:03:41;;;;;;;17.58;4.10;;;7.70;99.90;;;7.68;100.00;99337.00;4943423;28;20242;-79
2023/01/08 06:06:10;;;;;;;10.93;2.65;;;7.70;99.90;;;7.69;100.00;99334.38;4932688;29;20207;-78
2023/01/08 06:08:37;;;;;;;14.35;3.53;;;7.70;99.90;;;7.69;100.00;99336.13;4932849;29;20214;-79
2023/01/08 06:11:09;;;;;;;14.27;3.45;;;7.70;99.90;;;7.69;100.00;99331.72;4929810;29;20254;-77
2023/01/08 06:13:43;;;;;;;15.57;3.72;;;7.70;99.90;;;7.70;100.00;99329.97;4932342;29;20219;-78
2023/01/08 06:16:11;;;;;;;14.90;3.58;;;7.70;99.90;;;7.70;100.00;99335.25;4930285;29;20659;-79
2023/01/08 06:18:38;;;;;;;14.40;3.58;;;7.80;99.90;;;7.72;100.00;99333.50;4935330;29;20203;-79
2023/01/08 06:21:06;;;;;;;20.13;4.82;;;7.70;99.90;;;7.72;100.00;99330.84;4933777;29;20262;-80
2023/01/08 06:23:33;;;;;;;18.48;4.30;;;7.80;99.90;;;7.69;100.00;99330.84;4932398;29;20226;-78
2023/01/08 06:26:02;;;;;;;14.10;3.33;;;7.70;99.90;;;7.69;100.00;99325.59;4932193;29;20207;-78
2023/01/08 06:28:31;;;;;;;11.98;2.80;;;7.70;99.90;;;7.66;100.00;99323.81;4934098;29;20203;-79
2023/01/08 06:30:59;;;;;;;9.82;2.33;;;7.70;99.90;;;7.68;100.00;99334.34;4935067;29;20262;-79
2023/01/08 06:33:27;;;;;;;15.95;3.83;;;7.70;99.90;;;7.66;100.00;99326.47;4934393;29;20570;-78
2023/01/08 06:35:58;;;;;;;9.93;2.40;;;7.70;99.90;;;7.66;100.00;99330.84;4932166;29;20265;-78
2023/01/08 06:38:25;;;;;;;13.02;3.10;;;7.70;99.90;;;7.62;100.00;99337.84;4930301;29;20211;-78
2023/01/08 06:40:52;;;;;;;6.82;1.73;;;7.70;99.90;;;7.61;100.00;99335.22;4930780;29;20246;-78
2023/01/08 06:43:21;;;;;;;22.02;5.05;;;7.60;99.90;;;7.58;100.00;99333.44;4943305;28;20292;-78
2023/01/08 06:45:54;;;;;;;17.42;4.22;;;7.60;99.90;;;7.55;100.00;99340.44;4929769;29;20293;-78
2023/01/08 06:48:21;;;;;;;10.65;2.65;;;7.60;99.90;;;7.54;100.00;99338.69;4928889;29;20243;-79
2023/01/08 06:50:48;;;;;;;9.80;2.30;;;7.60;99.90;;;7.52;100.00;99349.22;4935473;29;20233;-79
2023/01/08 06:53:15;;;;;;;11.77;2.80;;;7.60;99.90;;;7.54;100.00;99350.09;4930889;29;20313;-79
2023/01/08 06:55:42;;;;;;;15.77;4.38;;;7.60;99.90;;;7.53;100.00;99343.06;4932857;29;20645;-81
2023/01/08 06:58:11;;;;;;;14.30;3.42;;;7.60;99.90;;;7.52;100.00;99330.78;4936480;29;20253;-81
2023/01/08 07:00:39;;;;;;;14.25;3.33;;;7.60;99.90;;;7.53;100.00;99335.19;4937288;29;20299;-81
2023/01/08 07:03:06;;;;;;;13.02;3.13;;;7.60;99.90;;;7.52;100.00;99343.06;4937714;29;20269;-80
2023/01/08 07:05:34;;;;;;;16.25;3.83;;;7.60;99.90;;;7.54;100.00;99360.63;4937388;29;20242;-82
2023/01/08 07:08:01;;;;;;;10.57;2.55;;;7.60;99.90;;;7.54;100.00;99358.00;4937927;29;20217;-82
2023/01/08 07:10:30;;;;;;;13.18;3.15;;;7.50;99.90;;;7.52;100.00;99366.75;4939355;29;20278;-81
2023/01/08 07:12:57;;;;;;;12.23;2.90;;;7.50;99.90;;;7.52;100.00;99361.50;4942810;29;20238;-81
2023/01/08 07:15:24;;;;;;;15.25;3.58;;;7.50;99.90;;;7.52;100.00;99359.75;4940796;29;20210;-80
2023/01/08 07:17:51;;;;;;;12.90;3.08;;;7.50;99.90;;;7.52;100.00;99364.13;4937902;29;20203;-80
2023/01/08 07:20:19;;;;;;;15.18;3.58;;;7.50;99.90;;;7.52;100.00;99367.63;4940095;29;20214;-81
2023/01/08 07:25:20;;;;;;;10.27;2.45;;;7.50;99.90;;;7.53;100.00;99365.88;4958888;28;20241;-77
2023/01/08 07:27:48;;;;;;;9.38;2.25;;;7.60;99.90;;;7.54;100.00;99379.03;4975142;28;20232;-77
2023/01/08 07:30:15;;;;;;;6.55;1.70;;;7.50;99.90;;;7.56;100.00;99374.66;4974010;28;20209;-78
2023/01/08 07:33:02;;;;;;;11.63;3.10;;;7.60;99.90;;;7.58;100.00;99379.94;4967932;28;20304;-77
2023/01/08 07:35:29;;;;;;;9.15;2.22;;;7.60;99.90;;;7.59;100.00;99379.06;4976266;28;20205;-78
2023/01/08 07:37:56;;;;;;;10.50;2.60;;;7.60;99.90;;;7.60;100.00;99383.44;4975474;28;20219;-78
2023/01/08 07:40:23;;;;;;;4.88;1.30;;;7.60;99.90;;;7.61;100.00;99395.72;4976675;28;20236;-76
2023/01/08 07:43:02;;;;;;;9.93;2.38;;;7.60;99.90;;;7.63;100.00;99400.13;4975320;28;20218;-76
2023/01/08 07:45:30;;;;;;;7.15;1.77;;;7.70;99.90;;;7.64;100.00;99404.50;4974571;28;20219;-76
2023/01/08 07:47:58;;;;;;;7.35;1.83;;;7.70;99.90;;;7.64;100.00;99395.75;4972180;28;20264;-76
2023/01/08 07:50:26;;;;;;;7.55;1.98;;;7.70;99.90;;;7.62;100.00;99395.72;4975589;28;20213;-76
2023/01/08 07:52:59;;;;;;;7.82;1.88;;;7.60;99.90;;;7.65;100.00;99410.66;4975481;28;20237;-76
2023/01/08 07:55:29;;;;;;;6.82;1.67;;;7.60;99.90;;;7.64;100.00;99407.16;4975802;28;20275;-76
2023/01/08 07:57:56;;;;;;;7.13;1.80;;;7.70;99.90;;;7.64;100.00;99407.16;4974255;28;20217;-76
2023/01/08 08:00:23;;;;;;;6.90;1.65;;;7.70;99.90;;;7.64;100.00;99406.25;4975924;28;20213;-76
2023/01/08 08:02:50;;;;;;;68.45;12.18;;;7.70;99.90;;;7.63;100.00;99409.75;4996882;23;20213;-78
2023/01/08 08:05:17;;;;;;;12.52;3.03;;;7.70;99.90;;;7.60;100.00;99409.75;4970348;28;20244;-80
2023/01/08 08:07:44;;;;;;;10.80;2.60;;;7.60;99.90;;;7.60;100.00;99412.38;4969630;28;20209;-79
2023/01/08 08:10:11;;;;;;;11.27;2.70;;;7.60;99.90;;;7.60;100.00;99418.53;4971845;28;20225;-78
2023/01/08 08:12:38;;;;;;;14.38;3.38;;;7.60;99.90;;;7.62;100.00;99415.91;4973114;28;20284;-80
2023/01/08 08:15:07;;;;;;;14.75;3.60;;;7.60;99.90;;;7.61;100.00;99412.38;4969824;28;20237;-80
2023/01/08 08:17:34;;;;;;;17.27;4.05;;;7.70;99.90;;;7.62;100.00;99415.91;4964703;28;20217;-78
2023/01/08 08:20:01;;;;;;;8.68;2.08;;;7.60;99.90;;;7.63;100.00;99415.91;4965554;28;20284;-79
2023/01/08 08:22:29;;;;;;;11.15;2.72;;;7.60;99.90;;;7.64;100.00;99412.41;4969319;28;20209;-80
2023/01/08 08:24:56;;;;;;;10.35;2.55;;;7.60;99.90;;;7.66;100.00;99413.28;4971769;28;20228;-80
2023/01/08 08:27:23;;;;;;;10.00;2.45;;;7.70;99.90;;;7.66;100.00;99405.41;4969317;28;20214;-81
2023/01/08 08:29:50;;;;;;;19.77;4.75;;;7.70;99.90;;;7.65;100.00;99401.00;4972999;28;20269;-80
2023/01/08 08:32:17;;;;;;;16.42;4.03;;;7.70;99.90;;;7.67;100.00;99406.28;4972990;28;20247;-80
2023/01/08 08:34:44;;;;;;;10.82;2.65;;;7.70;99.90;;;7.66;100.00;99408.03;4973421;28;20284;-80
2023/01/08 08:37:12;;;;;;;12.45;3.00;;;7.70;99.90;;;7.66;100.00;99410.66;4972588;28;20241;-80
2023/01/08 08:39:39;;;;;;;6.05;1.52;;;7.70;99.90;;;7.68;100.00;99402.78;4976735;28;20297;-80
2023/01/08 08:42:06;;;;;;;11.20;2.60;;;7.70;99.90;;;7.69;100.00;99404.53;4970981;28;20209;-80
2023/01/08 08:44:33;;;;;;;11.00;2.63;;;7.60;99.90;;;7.70;100.00;99399.28;4977793;28;20236;-80
2023/01/08 08:47:00;;;;;;;16.65;3.90;;;7.70;99.90;;;7.71;100.00;99392.25;4969259;28;20206;-81
2023/01/08 08:49:27;;;;;;;11.35;2.78;;;7.70;99.90;;;7.71;100.00;99377.34;4976782;28;20252;-81
2023/01/08 08:51:55;;;;;;;10.40;2.55;;;7.70;99.90;;;7.71;100.00;99372.09;4975688;28;20248;-81
2023/01/08 08:54:22;;;;;;;12.00;2.95;;;7.70;99.90;;;7.71;100.00;99369.44;4973902;28;20225;-81
2023/01/08 08:56:49;;;;;;;11.63;2.85;;;7.70;99.90;;;7.74;100.00;99368.59;4980568;28;20214;-80
2023/01/08 08:59:16;;;;;;;10.48;2.65;;;7.80;99.90;;;7.77;100.00;99371.22;4976190;28;20201;-80
2023/01/08 09:01:43;;;;;;;11.65;2.85;;;7.80;99.90;;;7.80;100.00;99373.00;4976376;28;20213;-81
2023/01/08 09:04:13;;;;;;;13.88;3.35;;;7.80;99.90;;;7.80;100.00;99371.28;4973581;28;20238;-81
2023/01/08 09:06:40;;;;;;;10.93;2.70;;;7.80;99.90;;;7.83;100.00;99373.03;4968174;28;20201;-80
2023/01/08 09:09:07;;;;;;;11.13;2.78;;;7.80;99.90;;;7.87;100.00;99374.78;4975037;28;20646;-80
2023/01/08 09:11:35;;;;;;;11.23;2.53;;;7.80;99.90;;;7.90;100.00;99374.81;4974655;28;20233;-81
2023/01/08 09:14:02;;;;;;;7.57;1.90;;;7.90;99.90;;;7.92;100.00;99380.94;4974924;28;20229;-81
2023/01/08 09:16:29;;;;;;;8.00;2.13;;;7.90;99.90;;;7.92;100.00;99381.84;4975656;28;20256;-80
2023/01/08 09:18:56;;;;;;;8.75;2.17;;;7.90;99.90;;;7.94;100.00;99377.44;4975869;28;20701;-80
2023/01/08 09:21:26;;;;;;;10.60;2.55;;;8.00;99.90;;;7.96;100.00;99380.97;4975762;28;20237;-82
2023/01/08 09:23:53;;;;;;;12.85;3.17;;;8.00;99.90;;;7.97;100.00;99374.81;4961526;28;20288;-81
2023/01/08 09:26:20;;;;;;;11.70;3.22;;;8.00;99.90;;;8.00;100.00;99376.59;4973927;28;20244;-82
2023/01/08 09:28:47;;;;;;;9.48;2.40;;;8.00;99.90;;;8.01;100.00;99367.81;4971188;28;20225;-82
2023/01/08 09:31:14;;;;;;;11.65;2.80;;;8.00;99.90;;;8.15;100.00;99373.09;4972478;28;20253;-80
2023/01/08 09:33:41;;;;;;;9.05;2.20;;;8.10;99.90;;;8.21;100.00;99383.66;4973220;28;20239;-78
2023/01/08 09:36:10;;;;;;;12.55;3.10;;;8.20;99.90;;;8.14;100.00;99376.63;4975610;28;20203;-80
2023/01/08 09:38:37;;;;;;;10.27;2.53;;;8.20;99.90;;;8.14;100.00;99371.34;4981219;28;20259;-80
2023/01/08 09:41:45;;;;;;;7.72;1.90;;;8.10;99.90;;;8.15;100.00;99381.88;4974935;28;20260;-80
2023/01/08 09:44:25;;;;;;;14.50;3.50;;;8.10;99.90;;;8.16;100.00;99385.41;4970441;28;20236;-79
2023/01/08 09:46:55;;;;;;;9.65;2.42;;;8.20;99.90;;;8.16;100.00;99381.00;4973604;28;20736;-78
2023/01/08 09:49:47;;;;;;;7.13;1.77;;;8.20;99.90;;;8.18;100.00;99381.88;4963942;28;20213;-79
2023/01/08 09:52:15;;;;;;;5.68;1.50;;;8.20;99.90;;;8.24;100.00;99387.16;4963518;28;20248;-79
2023/01/08 09:54:43;;;;;;;9.93;2.28;;;8.20;99.90;;;8.23;100.00;99387.16;4971725;28;20221;-78
2023/01/08 09:57:18;;;;;;;12.18;2.95;;;8.30;99.90;;;8.24;100.00;99394.19;4965412;28;20572;-79
2023/01/08 09:59:47;;;;;;;19.63;4.68;;;8.20;99.90;;;8.27;100.00;99402.09;4969248;28;20206;-79
2023/01/08 10:02:23;;;;;;;10.50;2.60;;;8.30;99.90;;;8.26;100.00;99409.13;4967918;28;20244;-80
2023/01/08 10:05:00;;;;;;;12.25;2.88;;;8.30;99.90;;;8.29;100.00;99409.13;4962621;28;20237;-79
2023/01/08 10:07:29;;;;;;;14.25;3.33;;;8.30;99.90;;;8.33;100.00;99415.31;4973637;28;20299;-80
2023/01/08 10:09:56;;;;;;;16.35;3.88;;;8.30;99.90;;;8.33;100.00;99405.66;4964016;28;20311;-78
2023/01/08 10:12:31;;;;;;;11.65;2.80;;;8.10;99.90;;;8.35;100.00;99400.38;4961975;28;20320;-78
2023/01/08 10:15:06;;;;;;;11.70;2.92;;;8.40;99.90;;;8.39;100.00;99406.53;4978778;28;20276;-78
2023/01/08 10:17:40;;;;;;;19.23;4.53;;;8.30;99.90;;;8.43;100.00;99410.94;4968835;28;20300;-78
2023/01/08 10:20:34;;;;;;;13.15;3.17;;;8.40;99.90;;;8.44;100.00;99410.94;4970282;28;20232;-78
2023/01/08 10:23:14;;;;;;;19.02;4.85;;;8.40;99.90;;;8.45;100.00;99409.19;4970510;28;20213;-78
2023/01/08 10:25:56;;;;;;;15.18;4.25;;;8.50;99.90;;;8.47;100.00;99407.44;4965886;28;20212;-79
2023/01/08 10:28:30;;;;;;;13.63;4.25;;;8.50;99.90;;;8.53;100.00;99415.34;4962012;28;20291;-80
2023/01/08 10:31:07;;;;;;;14.25;3.58;;;8.50;99.90;;;8.54;100.00;99404.78;4968411;28;20267;-80
2023/01/08 10:33:48;;;;;;;14.38;3.60;;;8.60;99.90;;;8.59;100.00;99402.16;4965532;28;20228;-79
2023/01/08 10:36:22;;;;;;;12.82;3.30;;;8.60;99.90;;;8.69;100.00;99405.69;4965862;28;20300;-80
2023/01/08 10:38:58;;;;;;;12.70;3.25;;;8.60;99.90;;;8.73;100.00;99408.31;4972838;28;20248;-79